Time;durP1;ratioP1;P1;durP2;ratioP2;P2;SDS_P1;SDS_P2;PMS_P1;PMS_P2;Temp;Humidity;BMP_temperature;BMP_pressure;BME280_temperature;BME280_humidity;BME280_pressure;Samples;Min_cycle;Max_cycle;Signal;HPM_P1;HPM_P2
2022/08/25 00:01:31;;;;;;;;;;;;;;;24.56;63.78;101634.94;4973001;28;4358;-60
2022/08/25 00:04:02;;;;;;;;;;;;;;;24.58;63.16;101629.97;4975376;28;4217;-59
2022/08/25 00:06:28;;;;;;;;;;;;;;;24.58;63.56;101627.06;4976416;28;4100;-60
2022/08/25 00:08:58;;;;;;;;;;;;;;;24.57;63.53;101631.34;4973879;28;5340;-59
2022/08/25 00:11:25;;;;;;;;;;;;;;;24.57;63.67;101631.34;4971511;28;4237;-59
2022/08/25 00:13:53;;;;;;;;;;;;;;;24.57;63.57;101621.91;4974439;28;5308;-60
2022/08/25 00:16:19;;;;;;;;;;;;;;;24.58;63.43;101629.19;4976587;28;4547;-60
2022/08/25 00:18:48;;;;;;;;;;;;;;;24.57;63.43;101631.34;4976366;28;4384;-60
2022/08/25 00:21:14;;;;;;;;;;;;;;;24.58;63.74;101626.28;4975658;28;4271;-60
2022/08/25 00:23:41;;;;;;;;;;;;;;;24.57;63.61;101625.56;4976246;28;4447;-60
2022/08/25 00:26:07;;;;;;;;;;;;;;;24.58;62.88;101629.19;4973920;28;4259;-59
2022/08/25 00:28:34;;;;;;;;;;;;;;;24.58;63.37;101615.47;4975622;28;5273;-59
2022/08/25 00:31:00;;;;;;;;;;;;;;;24.58;63.28;101614.72;4974391;28;4198;-60
2022/08/25 00:33:27;;;;;;;;;;;;;;;24.57;63.09;101616.88;4979765;28;4357;-60
2022/08/25 00:35:55;;;;;;;;;;;;;;;24.57;63.48;101608.19;4978250;28;6731;-59
2022/08/25 00:38:21;;;;;;;;;;;;;;;24.57;63.38;101610.34;4978825;28;4256;-59
2022/08/25 00:41:04;;;;;;;;;;;;;;;24.57;63.21;101608.19;4979682;28;4151;-60
2022/08/25 00:43:36;;;;;;;;;;;;;;;24.55;63.31;101602.31;4976586;28;4185;-60
2022/08/25 00:46:03;;;;;;;;;;;;;;;24.56;63.44;101603.06;4976300;28;4236;-59
2022/08/25 00:48:29;;;;;;;;;;;;;;;24.57;63.38;101608.19;4978770;28;5359;-59
2022/08/25 00:50:56;;;;;;;;;;;;;;;24.56;63.47;101612.50;4975248;28;5279;-59
2022/08/25 00:53:23;;;;;;;;;;;;;;;24.55;63.56;101605.22;4993198;28;5639;-59
2022/08/25 00:55:49;;;;;;;;;;;;;;;24.56;63.60;101605.97;4972621;28;4640;-59
2022/08/25 00:58:17;;;;;;;;;;;;;;;24.55;63.39;101604.47;4972088;28;4220;-60
2022/08/25 01:00:44;;;;;;;;;;;;;;;24.54;63.62;101603.72;4974040;28;5217;-60
2022/08/25 01:03:11;;;;;;;;;;;;;;;24.57;63.43;101613.22;4980074;28;4228;-60
2022/08/25 01:05:37;;;;;;;;;;;;;;;24.54;63.66;101612.41;4977484;28;5161;-59
2022/08/25 01:08:05;;;;;;;;;;;;;;;24.54;63.32;101615.31;4978112;28;5793;-60
2022/08/25 01:10:32;;;;;;;;;;;;;;;24.53;63.55;101619.59;4990870;28;4257;-59
2022/08/25 01:13:00;;;;;;;;;;;;;;;24.52;63.54;101618.13;4972728;28;4257;-60
2022/08/25 01:15:26;;;;;;;;;;;;;;;24.52;63.39;101612.31;4991528;28;4218;-60
2022/08/25 01:17:53;;;;;;;;;;;;;;;24.51;63.65;101616.63;4963639;28;4211;-59
2022/08/25 01:20:20;;;;;;;;;;;;;;;24.52;63.50;101615.22;4972173;28;4323;-60
2022/08/25 01:22:47;;;;;;;;;;;;;;;24.51;63.54;101616.63;4977338;28;5231;-60
2022/08/25 01:25:26;;;;;;;;;;;;;;;24.52;63.63;101617.38;4979029;28;4220;-60
2022/08/25 01:27:52;;;;;;;;;;;;;;;24.51;63.68;101610.84;4970601;28;5080;-60
2022/08/25 01:30:19;;;;;;;;;;;;;;;24.51;63.56;101622.44;4968727;28;4254;-60
2022/08/25 01:32:45;;;;;;;;;;;;;;;24.51;63.57;101619.53;4974096;28;4116;-60
2022/08/25 01:35:11;;;;;;;;;;;;;;;24.47;63.71;101619.38;4973979;28;4146;-61
2022/08/25 01:37:38;;;;;;;;;;;;;;;24.47;63.44;101616.47;4973696;28;4214;-61
2022/08/25 01:40:05;;;;;;;;;;;;;;;24.47;63.73;101616.47;4975748;28;4180;-60
2022/08/25 01:42:36;;;;;;;;;;;;;;;24.45;63.63;101614.19;4975294;28;4242;-60
2022/08/25 01:45:03;;;;;;;;;;;;;;;24.46;63.70;101612.81;4976232;28;5257;-60
2022/08/25 01:47:30;;;;;;;;;;;;;;;24.46;63.35;101606.25;4977287;28;5429;-61
2022/08/25 01:49:57;;;;;;;;;;;;;;;24.46;63.48;101603.34;4972485;28;5235;-61
2022/08/25 01:52:52;;;;;;;;;;;;;;;24.45;63.51;101607.66;4978077;28;4208;-61
2022/08/25 01:55:18;;;;;;;;;;;;;;;24.45;63.31;101604.78;4969435;28;4377;-60
2022/08/25 01:57:45;;;;;;;;;;;;;;;24.43;63.41;101610.47;4977030;28;4278;-61
2022/08/25 02:00:13;;;;;;;;;;;;;;;24.43;63.51;101604.69;4974301;28;4423;-61
2022/08/25 02:02:41;;;;;;;;;;;;;;;24.43;63.57;101604.69;4973148;28;5349;-60
2022/08/25 02:05:08;;;;;;;;;;;;;;;24.43;63.45;101613.38;4974760;28;5536;-60
2022/08/25 02:07:35;;;;;;;;;;;;;;;24.42;63.12;101597.41;4975876;28;5407;-60
2022/08/25 02:10:03;;;;;;;;;;;;;;;24.42;63.28;101600.31;4976180;28;4197;-60
2022/08/25 02:12:32;;;;;;;;;;;;;;;24.42;63.29;101591.63;4973392;28;4328;-60
2022/08/25 02:15:00;;;;;;;;;;;;;;;24.41;63.22;101596.66;4975713;28;4194;-60
2022/08/25 02:17:27;;;;;;;;;;;;;;;24.40;63.13;101592.28;4973672;28;4259;-61
2022/08/25 02:19:55;;;;;;;;;;;;;;;24.40;63.23;101582.84;4973671;28;4428;-61
2022/08/25 02:22:22;;;;;;;;;;;;;;;24.40;63.05;101585.75;4975504;28;4590;-61
2022/08/25 02:24:48;;;;;;;;;;;;;;;24.40;63.20;101577.81;4974633;28;4120;-61
2022/08/25 02:27:15;;;;;;;;;;;;;;;24.40;63.13;101577.06;4974697;28;4243;-61
2022/08/25 02:29:41;;;;;;;;;;;;;;;24.41;63.02;101584.34;4973513;28;4258;-61
2022/08/25 02:32:09;;;;;;;;;;;;;;;24.39;63.05;101582.09;4976174;28;4077;-60
2022/08/25 02:34:36;;;;;;;;;;;;;;;24.39;63.19;101584.97;4968477;28;4323;-61
2022/08/25 02:37:02;;;;;;;;;;;;;;;24.38;63.11;101592.19;4977511;28;4599;-61
2022/08/25 02:39:28;;;;;;;;;;;;;;;24.38;63.18;101592.19;4973746;28;4244;-61
2022/08/25 02:41:55;;;;;;;;;;;;;;;24.44;63.07;101583.00;4976049;28;4195;-61
2022/08/25 02:44:21;;;;;;;;;;;;;;;24.59;62.66;101575.69;4973760;28;4310;-60
2022/08/25 02:46:47;;;;;;;;;;;;;;;24.46;62.99;101580.19;4975893;28;4559;-60
2022/08/25 02:49:14;;;;;;;;;;;;;;;24.38;63.14;101580.63;4974230;28;5217;-61
2022/08/25 02:51:41;;;;;;;;;;;;;;;24.35;63.25;101572.50;4975750;28;4221;-61
2022/08/25 02:54:09;;;;;;;;;;;;;;;24.33;63.27;101575.34;4973423;28;4371;-60
2022/08/25 02:56:35;;;;;;;;;;;;;;;24.33;63.04;101566.66;4976576;28;4083;-60
2022/08/25 02:59:01;;;;;;;;;;;;;;;24.32;63.28;101565.16;4973080;28;4336;-60
2022/08/25 03:01:29;;;;;;;;;;;;;;;24.32;63.02;101565.88;4973330;28;4212;-60
2022/08/25 03:04:06;;;;;;;;;;;;;;;24.31;63.14;101558.63;4975451;28;4225;-60
2022/08/25 03:06:32;;;;;;;;;;;;;;;24.31;63.25;101567.28;4976218;28;4321;-60
2022/08/25 03:09:07;;;;;;;;;;;;;;;24.31;63.07;101566.56;4974114;28;4444;-60
2022/08/25 03:11:33;;;;;;;;;;;;;;;24.31;63.00;101560.78;4972240;28;4238;-60
2022/08/25 03:14:00;;;;;;;;;;;;;;;24.31;63.00;101557.88;4973441;28;4390;-60
2022/08/25 03:16:26;;;;;;;;;;;;;;;24.31;63.09;101557.88;4975528;28;4232;-60
2022/08/25 03:18:53;;;;;;;;;;;;;;;24.29;62.99;101555.63;4973300;28;5358;-60
2022/08/25 03:21:20;;;;;;;;;;;;;;;24.29;63.08;101549.84;4970953;28;4531;-60
2022/08/25 03:23:47;;;;;;;;;;;;;;;24.30;62.84;101550.59;4973129;28;4851;-60
2022/08/25 03:28:59;;;;;;;;;;;;;;;24.28;63.00;101553.41;4968689;28;5529;-60
2022/08/25 03:31:26;;;;;;;;;;;;;;;24.28;62.89;101547.59;4976103;28;4198;-60
2022/08/25 03:33:53;;;;;;;;;;;;;;;24.28;62.68;101544.72;4970842;28;4405;-60
2022/08/25 03:36:19;;;;;;;;;;;;;;;24.28;62.74;101553.41;4972172;28;4231;-60
2022/08/25 03:38:45;;;;;;;;;;;;;;;24.28;62.85;101541.81;4968588;28;4394;-60
2022/08/25 03:41:31;;;;;;;;;;;;;;;24.27;62.83;101543.22;4972924;28;4085;-60
2022/08/25 03:43:58;;;;;;;;;;;;;;;24.26;62.87;101539.59;4973543;28;4347;-60
2022/08/25 03:46:25;;;;;;;;;;;;;;;24.27;62.68;101537.44;4977621;28;4184;-60
2022/08/25 03:48:52;;;;;;;;;;;;;;;24.25;62.75;101538.84;4975214;28;4180;-60
2022/08/25 03:51:21;;;;;;;;;;;;;;;24.25;62.76;101538.84;4973977;28;4248;-60
2022/08/25 03:53:48;;;;;;;;;;;;;;;24.24;62.59;101548.94;4974848;28;4260;-59
2022/08/25 03:56:15;;;;;;;;;;;;;;;24.24;62.47;101548.94;4975187;28;4267;-59
2022/08/25 03:58:41;;;;;;;;;;;;;;;24.23;62.58;101547.47;4973392;28;4257;-59
2022/08/25 04:01:08;;;;;;;;;;;;;;;24.24;62.53;101548.94;4973239;28;4241;-59
2022/08/25 04:03:34;;;;;;;;;;;;;;;24.24;62.45;101548.19;4969896;28;4358;-59
2022/08/25 04:06:05;;;;;;;;;;;;;;;24.25;62.56;101555.47;4972729;28;4233;-59
2022/08/25 04:08:35;;;;;;;;;;;;;;;24.22;62.41;101548.84;4977976;28;4308;-60
2022/08/25 04:11:09;;;;;;;;;;;;;;;24.23;62.21;101550.34;4979713;28;5163;-61
2022/08/25 04:13:35;;;;;;;;;;;;;;;24.05;62.27;101555.34;4979832;28;4091;-67
2022/08/25 04:16:03;;;;;;;;;;;;;;;23.83;62.57;101549.38;4975397;28;4140;-67
2022/08/25 04:18:30;;;;;;;;;;;;;;;22.24;65.84;101551.38;4976211;28;4535;-61
2022/08/25 04:21:02;;;;;;;;;;;;;;;18.90;80.18;101552.72;4976433;28;4204;-61
2022/08/25 04:23:29;;;;;;;;;;;;;;;18.18;85.47;101550.97;4975303;28;4140;-61
2022/08/25 04:25:55;;;;;;;;;;;;;;;18.15;86.55;101560.81;4975261;28;5340;-55
2022/08/25 04:28:22;;;;;;;;;;;;;;;18.90;86.55;101561.31;4980059;28;4427;-57
2022/08/25 04:30:49;;;;;;;;;;;;;;;18.58;86.52;101564.34;4975214;28;5381;-54
2022/08/25 04:33:17;;;;;;;;;;;;;;;19.09;86.83;101569.75;4975378;28;4413;-54
2022/08/25 04:35:47;;;;;;;;;;;;;;;18.92;86.53;101562.22;4971160;28;4239;-53
2022/08/25 04:38:14;;;;;;;;;;;;;;;18.91;89.30;101562.84;4972849;28;4096;-59
2022/08/25 04:40:40;;;;;;;;;;;;;;;19.03;88.16;101560.72;4977769;28;4431;-58
2022/08/25 04:43:06;;;;;;;;;;;;;;;19.34;87.41;101560.50;4962117;28;4106;-65
2022/08/25 04:45:37;;;;;;;;;;;;;;;20.17;82.76;101566.16;4968310;28;4109;-68
2022/08/25 04:48:03;;;;;;;;;;;;;;;20.50;80.70;101572.41;4975633;28;4419;-68
2022/08/25 04:50:30;;;;;;;;;;;;;;;20.68;79.60;101571.97;4972920;28;3974;-68
2022/08/25 04:52:58;;;;;;;;;;;;;;;20.79;79.33;101570.41;4973885;28;4109;-68
2022/08/25 04:55:27;;;;;;;;;;;;;;;20.73;79.72;101572.94;4966267;28;4193;-68
2022/08/25 04:57:54;;;;;;;;;;;;;;;20.76;79.97;101572.44;4965565;28;3947;-68
2022/08/25 05:00:20;;;;;;;;;;;;;;;20.78;80.27;101575.44;4973048;28;4080;-67
2022/08/25 05:02:46;;;;;;;;;;;;;;;20.72;81.15;101566.44;4971409;28;4019;-67
2022/08/25 05:05:13;;;;;;;;;;;;;;;20.75;80.99;101570.19;4974598;28;3995;-67
2022/08/25 05:07:50;;;;;;;;;;;;;;;20.97;80.21;101562.81;4972167;28;4400;-68
2022/08/25 05:10:16;;;;;;;;;;;;;;;21.06;79.98;101564.00;4973986;28;4180;-67
2022/08/25 05:12:42;;;;;;;;;;;;;;;21.26;79.40;101570.88;4974343;28;4311;-69
2022/08/25 05:17:54;;;;;;;;;;;;;;;21.19;79.97;101569.03;4974363;28;4153;-64
2022/08/25 05:20:21;;;;;;;;;;;;;;;21.33;79.85;101569.78;4974595;28;4858;-67
2022/08/25 05:22:48;;;;;;;;;;;;;;;21.47;79.48;101577.75;4984134;28;5200;-61
2022/08/25 05:25:14;;;;;;;;;;;;;;;21.52;80.01;101573.69;4970025;28;4568;-62
2022/08/25 05:27:41;;;;;;;;;;;;;;;21.37;79.97;101572.13;4968242;28;5164;-56
2022/08/25 05:30:08;;;;;;;;;;;;;;;21.31;80.33;101578.31;4969783;28;4253;-61
2022/08/25 05:32:35;;;;;;;;;;;;;;;21.39;80.41;101580.16;4974350;28;4252;-57
2022/08/25 05:35:01;;;;;;;;;;;;;;;21.45;80.15;101581.25;4968309;28;5177;-57
2022/08/25 05:37:27;;;;;;;;;;;;;;;21.53;79.86;101578.03;4972509;28;4345;-59
2022/08/25 05:39:54;;;;;;;;;;;;;;;21.58;79.98;101584.78;4965435;28;5524;-58
2022/08/25 05:42:21;;;;;;;;;;;;;;;22.00;78.62;101574.72;4975779;28;4073;-58
2022/08/25 05:44:47;;;;;;;;;;;;;;;21.71;79.07;101573.25;4966345;28;4244;-58
2022/08/25 05:47:14;;;;;;;;;;;;;;;21.48;80.32;101584.97;4972023;28;5605;-59
2022/08/25 05:49:40;;;;;;;;;;;;;;;21.81;79.38;101583.84;4968514;28;5493;-61
2022/08/25 05:52:07;;;;;;;;;;;;;;;22.08;77.72;101586.69;4964955;28;4999;-57
2022/08/25 05:54:33;;;;;;;;;;;;;;;21.90;78.89;101591.50;4965195;28;4627;-57
2022/08/25 05:57:00;;;;;;;;;;;;;;;21.93;78.78;101590.94;4966986;28;4209;-59
2022/08/25 05:59:26;;;;;;;;;;;;;;;21.99;78.72;101584.00;4973069;28;4161;-57
2022/08/25 06:04:38;;;;;;;;;;;;;;;21.88;79.33;101592.16;4973190;28;4227;-58
2022/08/25 06:07:06;;;;;;;;;;;;;;;22.29;77.17;101594.25;4970031;28;4213;-58
2022/08/25 06:09:33;;;;;;;;;;;;;;;22.16;77.44;101589.94;4966513;28;4322;-60
2022/08/25 06:11:59;;;;;;;;;;;;;;;21.67;79.82;101587.47;4962895;28;6452;-58
2022/08/25 06:14:26;;;;;;;;;;;;;;;21.72;80.06;101589.16;4963636;28;4185;-59
2022/08/25 06:16:52;;;;;;;;;;;;;;;21.87;79.66;101587.75;4958527;28;4156;-54
2022/08/25 06:19:19;;;;;;;;;;;;;;;22.33;77.48;101585.03;4962033;28;4087;-59
2022/08/25 06:21:46;;;;;;;;;;;;;;;22.32;77.82;101587.16;4969415;28;4228;-59
2022/08/25 06:24:12;;;;;;;;;;;;;;;22.25;78.05;101587.53;4962347;28;4070;-59
2022/08/25 06:26:41;;;;;;;;;;;;;;;22.51;76.96;101594.59;4965069;28;5656;-60
2022/08/25 06:29:07;;;;;;;;;;;;;;;22.46;76.95;101586.38;4962596;28;5328;-60
2022/08/25 06:31:33;;;;;;;;;;;;;;;22.06;78.66;101595.22;4962193;28;4690;-58
2022/08/25 06:34:00;;;;;;;;;;;;;;;21.97;79.41;101590.44;4969159;28;4263;-58
2022/08/25 06:36:27;;;;;;;;;;;;;;;22.02;79.32;101594.28;4958044;28;4265;-57
2022/08/25 06:38:53;;;;;;;;;;;;;;;22.08;79.41;101598.22;4960963;28;4220;-58
2022/08/25 06:41:19;;;;;;;;;;;;;;;22.11;79.45;101602.69;4959700;28;4895;-60
2022/08/25 06:43:46;;;;;;;;;;;;;;;21.92;79.98;101608.88;4963528;28;4389;-57
2022/08/25 06:46:17;;;;;;;;;;;;;;;22.17;79.69;101605.13;4961973;28;4301;-58
2022/08/25 06:48:43;;;;;;;;;;;;;;;22.39;78.60;101605.53;4956290;28;5557;-57
2022/08/25 06:51:10;;;;;;;;;;;;;;;22.41;78.09;101605.63;4961664;28;4506;-58
2022/08/25 06:53:39;;;;;;;;;;;;;;;22.58;76.96;101613.69;4957626;28;4356;-58
2022/08/25 06:56:05;;;;;;;;;;;;;;;22.58;77.02;101607.91;4961588;28;5553;-56
2022/08/25 06:58:32;;;;;;;;;;;;;;;22.38;77.87;101609.81;4956837;28;5628;-55
2022/08/25 07:01:08;;;;;;;;;;;;;;;22.12;79.87;101609.94;4958524;28;4182;-58
2022/08/25 07:03:44;;;;;;;;;;;;;;;22.10;79.75;101604.06;4953465;28;5303;-58
2022/08/25 07:06:12;;;;;;;;;;;;;;;21.97;80.73;101607.72;4963863;28;4444;-56
2022/08/25 07:08:39;;;;;;;;;;;;;;;22.14;80.54;101604.28;4964501;28;4607;-59
2022/08/25 07:11:06;;;;;;;;;;;;;;;21.93;80.82;101598.88;4974875;28;4207;-58
2022/08/25 07:13:41;;;;;;;;;;;;;;;21.84;81.32;101594.06;4968707;28;4600;-54
2022/08/25 07:16:09;;;;;;;;;;;;;;;21.61;82.90;101595.78;4966784;28;4596;-62
2022/08/25 07:18:36;;;;;;;;;;;;;;;22.50;79.72;101590.22;4967563;28;4318;-62
2022/08/25 07:21:03;;;;;;;;;;;;;;;22.47;78.07;101597.28;4968865;28;4266;-59
2022/08/25 07:23:29;;;;;;;;;;;;;;;22.93;76.41;101586.50;4970693;28;4256;-62
2022/08/25 07:25:55;;;;;;;;;;;;;;;23.07;75.57;101585.72;4971010;28;4113;-62
2022/08/25 07:28:22;;;;;;;;;;;;;;;23.02;75.73;101599.22;4966824;28;4150;-64
2022/08/25 07:30:50;;;;;;;;;;;;;;;22.89;76.63;101586.31;4970343;28;5243;-60
2022/08/25 07:33:17;;;;;;;;;;;;;;;23.05;75.61;101582.72;4968362;28;5374;-63
2022/08/25 07:35:44;;;;;;;;;;;;;;;23.12;75.32;101593.16;4961635;28;5502;-63
2022/08/25 07:38:10;;;;;;;;;;;;;;;22.93;75.66;101592.28;4965582;28;4260;-63
2022/08/25 07:40:44;;;;;;;;;;;;;;;23.20;74.82;101590.63;4966439;28;4492;-55
2022/08/25 07:43:18;;;;;;;;;;;;;;;23.35;73.40;101581.22;4969695;28;4323;-54
2022/08/25 07:45:45;;;;;;;;;;;;;;;23.41;72.92;101578.63;4970766;28;5191;-57
2022/08/25 07:48:31;;;;;;;;;;;;;;;23.50;72.69;101590.53;4971596;28;4120;-59
2022/08/25 07:50:58;;;;;;;;;;;;;;;23.62;71.97;101591.09;4968014;28;4567;-56
2022/08/25 07:53:29;;;;;;;;;;;;;;;23.69;71.89;101589.22;4969480;28;4153;-52
2022/08/25 07:55:55;;;;;;;;;;;;;;;23.67;72.10;101598.53;4970443;28;4223;-56
2022/08/25 07:58:22;;;;;;;;;;;;;;;23.72;71.99;101590.78;4970957;28;4191;-54
2022/08/25 08:00:51;;;;;;;;;;;;;;;23.75;71.76;101589.50;4966587;28;4526;-56
2022/08/25 08:03:19;;;;;;;;;;;;;;;23.76;71.43;101583.06;4970248;28;4553;-52
2022/08/25 08:06:06;;;;;;;;;;;;;;;23.83;71.03;101592.75;4972290;28;4278;-55
2022/08/25 08:08:32;;;;;;;;;;;;;;;23.85;70.76;101583.44;4969780;28;5360;-57
2022/08/25 08:11:00;;;;;;;;;;;;;;;23.80;71.02;101589.03;4972390;28;4249;-53
2022/08/25 08:13:31;;;;;;;;;;;;;;;23.80;71.23;101583.25;4971526;28;4223;-55
2022/08/25 08:16:00;;;;;;;;;;;;;;;23.82;71.12;101580.44;4973226;28;5448;-54
2022/08/25 08:18:26;;;;;;;;;;;;;;;23.82;71.02;101580.44;4973444;28;4074;-57
2022/08/25 08:20:52;;;;;;;;;;;;;;;23.87;70.83;101574.81;4972980;28;4160;-51
2022/08/25 08:23:19;;;;;;;;;;;;;;;23.91;70.53;101575.00;4970819;28;4225;-53
2022/08/25 08:25:46;;;;;;;;;;;;;;;23.89;70.81;101566.25;4970564;28;4308;-54
2022/08/25 08:28:13;;;;;;;;;;;;;;;23.93;70.79;101567.16;4973226;28;4212;-56
2022/08/25 08:30:39;;;;;;;;;;;;;;;23.99;70.76;101569.56;4969450;28;4193;-53
2022/08/25 08:33:19;;;;;;;;;;;;;;;23.97;70.42;101569.50;4971397;28;4113;-51
2022/08/25 08:35:46;;;;;;;;;;;;;;;23.97;70.39;101563.69;4962017;28;4442;-54
2022/08/25 08:38:12;;;;;;;;;;;;;;;24.00;70.29;101563.13;4970509;28;5229;-67
2022/08/25 08:42:15;;;;;;;;;;;;;;;23.96;70.69;101559.31;4969214;28;4209;-69
2022/08/25 08:43:40;;;;;;;;;;;;;;;24.02;70.09;101562.47;4969786;28;4214;-71
2022/08/25 08:46:07;;;;;;;;;;;;;;;24.00;70.23;101551.53;4973630;28;4140;-73
2022/08/25 08:48:43;;;;;;;;;;;;;;;24.02;70.02;101551.63;4973336;28;4114;-75
2022/08/25 08:51:16;;;;;;;;;;;;;;;24.03;69.94;101549.50;4973040;28;4150;-75
2022/08/25 08:53:51;;;;;;;;;;;;;;;24.09;69.73;101552.63;4976244;28;4955;-69
2022/08/25 08:56:25;;;;;;;;;;;;;;;24.06;69.65;101556.84;4976486;28;4486;-73
2022/08/25 08:59:04;;;;;;;;;;;;;;;23.95;70.25;101552.03;4969899;28;5460;-64
2022/08/25 09:01:41;;;;;;;;;;;;;;;23.88;70.55;101547.41;4964615;28;4248;-65
2022/08/25 09:04:09;;;;;;;;;;;;;;;23.89;70.46;101543.88;4987686;28;3919;-72
2022/08/25 09:06:44;;;;;;;;;;;;;;;23.88;71.15;101541.63;4960957;28;5242;-72
2022/08/25 09:09:11;;;;;;;;;;;;;;;23.85;70.96;101542.94;4962895;28;4327;-72
2022/08/25 09:11:46;;;;;;;;;;;;;;;23.80;70.79;101542.75;4954184;28;4075;-71
2022/08/25 09:14:17;;;;;;;;;;;;;;;23.80;71.23;101539.88;4962259;28;4177;-74
2022/08/25 09:16:55;;;;;;;;;;;;;;;23.80;71.26;101542.75;4958756;28;4417;-67
2022/08/25 09:19:25;;;;;;;;;;;;;;;23.78;71.54;101531.09;4977339;28;4886;-72
2022/08/25 09:21:51;;;;;;;;;;;;;;;23.73;71.89;101532.31;4960657;28;4273;-68
2022/08/25 09:24:34;;;;;;;;;;;;;;;23.79;71.94;101540.53;4964635;28;5280;-67
2022/08/25 09:27:23;;;;;;;;;;;;;;;23.82;71.88;101534.19;4974613;28;4095;-74
2022/08/25 09:30:04;;;;;;;;;;;;;;;23.83;71.54;101529.13;4966788;28;4219;-67
2022/08/25 09:32:32;;;;;;;;;;;;;;;23.83;71.42;101529.88;4959081;28;4241;-73
2022/08/25 09:35:00;;;;;;;;;;;;;;;23.83;71.46;101529.13;4963957;28;4072;-68
2022/08/25 09:37:27;;;;;;;;;;;;;;;23.83;71.33;101529.13;4958209;28;4332;-61
2022/08/25 09:39:53;;;;;;;;;;;;;;;23.92;71.08;101518.66;4962233;28;4471;-72
2022/08/25 09:42:26;;;;;;;;;;;;;;;24.10;70.23;101519.41;4969574;28;5186;-77
2022/08/25 09:44:53;;;;;;;;;;;;;;;24.17;69.53;101520.41;4991251;28;4284;-75
2022/08/25 09:47:23;;;;;;;;;;;;;;;24.22;69.08;101522.81;4973453;28;4071;-79
2022/08/25 09:49:59;;;;;;;;;;;;;;;24.27;68.88;101523.72;4968140;28;4379;-78
2022/08/25 09:52:36;;;;;;;;;;;;;;;24.31;68.41;101523.16;4974964;28;4131;-73
2022/08/25 09:55:19;;;;;;;;;;;;;;;24.28;69.50;101512.88;4972010;28;4206;-74
2022/08/25 09:57:46;;;;;;;;;;;;;;;24.44;68.99;101513.53;4984156;28;4283;-74
2022/08/25 10:00:13;;;;;;;;;;;;;;;24.67;67.82;101518.09;4970415;28;4290;-75
2022/08/25 10:02:40;;;;;;;;;;;;;;;24.47;68.06;101500.66;4972574;28;4172;-75
2022/08/25 10:05:24;;;;;;;;;;;;;;;24.44;68.32;101496.91;4971264;28;4370;-76
2022/08/25 10:07:53;;;;;;;;;;;;;;;24.44;68.98;101501.94;4965480;28;4254;-66
2022/08/25 10:10:24;;;;;;;;;;;;;;;24.44;68.91;101490.38;4973932;28;5219;-79
2022/08/25 10:12:51;;;;;;;;;;;;;;;24.43;68.99;101488.88;4969810;28;4232;-68
2022/08/25 10:15:22;;;;;;;;;;;;;;;24.45;68.71;101486.81;4969458;28;3975;-73
2022/08/25 10:17:58;;;;;;;;;;;;;;;24.57;68.69;101498.16;4967513;28;5248;-73
2022/08/25 10:20:25;;;;;;;;;;;;;;;24.47;68.73;101489.09;4965790;28;5487;-74
2022/08/25 10:23:11;;;;;;;;;;;;;;;24.44;69.01;101485.34;4963194;28;4329;-72
2022/08/25 10:25:43;;;;;;;;;;;;;;;24.48;69.46;101490.56;4968843;28;4264;-73
2022/08/25 10:28:28;;;;;;;;;;;;;;;24.59;69.18;101488.81;4970516;28;4088;-78
2022/08/25 10:31:13;;;;;;;;;;;;;;;24.64;68.96;101494.09;4972672;28;4157;-80
2022/08/25 10:33:40;;;;;;;;;;;;;;;24.78;68.53;101482.28;4966462;28;4574;-81
2022/08/25 10:36:09;;;;;;;;;;;;;;;24.81;68.06;101480.25;4972865;28;4578;-72
2022/08/25 10:38:35;;;;;;;;;;;;;;;24.83;68.21;101483.19;4972810;28;4447;-71
2022/08/25 10:41:21;;;;;;;;;;;;;;;24.83;67.56;101477.41;4966204;28;4199;-74
2022/08/25 10:43:58;;;;;;;;;;;;;;;24.81;68.02;101474.44;4973517;28;4533;-76
2022/08/25 10:46:28;;;;;;;;;;;;;;;24.81;68.08;101469.41;4969407;28;4024;-70
2022/08/25 10:49:03;;;;;;;;;;;;;;;25.03;66.99;101472.38;4973475;28;4152;-71
2022/08/25 10:51:31;;;;;;;;;;;;;;;24.90;67.38;101469.69;4966582;28;4059;-68
2022/08/25 10:54:19;;;;;;;;;;;;;;;24.86;67.98;101464.50;4967122;28;4720;-68
2022/08/25 10:56:49;;;;;;;;;;;;;;;24.73;68.67;101462.56;4974160;28;4047;-67
2022/08/25 10:59:30;;;;;;;;;;;;;;;24.65;68.63;101457.94;4988164;28;4172;-68
2022/08/25 11:02:02;;;;;;;;;;;;;;;24.73;68.40;101459.66;4969281;28;5384;-69
2022/08/25 11:04:34;;;;;;;;;;;;;;;24.74;68.37;101461.13;4974652;28;3998;-68
2022/08/25 11:07:22;;;;;;;;;;;;;;;24.79;68.53;101462.78;4960274;28;4177;-65
2022/08/25 11:09:49;;;;;;;;;;;;;;;24.80;68.19;101455.56;4951786;28;5358;-68
2022/08/25 11:12:28;;;;;;;;;;;;;;;24.65;68.59;101460.09;4979340;28;4930;-70
2022/08/25 11:15:40;;;;;;;;;;;;;;;24.74;68.35;101452.44;4917117;28;4786;-73
2022/08/25 11:18:54;;;;;;;;;;;;;;;24.80;68.51;101449.78;4934966;28;3894;-69
2022/08/25 11:22:05;;;;;;;;;;;;;;;24.77;67.79;101440.28;4876982;29;3315;-70
2022/08/25 11:24:49;;;;;;;;;;;;;;;24.81;67.76;101436.78;4898550;29;2996;-71
2022/08/25 11:27:52;;;;;;;;;;;;;;;24.69;68.01;101445.00;4955623;28;4032;-64
2022/08/25 11:30:19;;;;;;;;;;;;;;;24.58;68.64;101441.75;4966702;28;4842;-66
2022/08/25 11:32:49;;;;;;;;;;;;;;;24.65;68.66;101439.81;4959188;28;4931;-71
2022/08/25 11:35:21;;;;;;;;;;;;;;;24.79;68.83;101442.50;4958604;28;4242;-70
2022/08/25 11:37:55;;;;;;;;;;;;;;;24.78;68.01;101435.97;4948396;28;4157;-71
2022/08/25 11:40:28;;;;;;;;;;;;;;;24.67;68.40;101431.22;4989962;28;4104;-71
2022/08/25 11:42:56;;;;;;;;;;;;;;;24.87;67.76;101439.91;4962683;28;4357;-70
2022/08/25 11:45:41;;;;;;;;;;;;;;;25.18;66.81;101430.19;4967916;28;4170;-68
2022/08/25 11:48:10;;;;;;;;;;;;;;;25.23;66.52;101428.91;4967503;28;5449;-68
2022/08/25 11:50:56;;;;;;;;;;;;;;;25.38;65.92;101421.47;4970794;28;5479;-67
2022/08/25 11:53:27;;;;;;;;;;;;;;;25.46;65.48;101424.63;4970589;28;4724;-67
2022/08/25 11:56:03;;;;;;;;;;;;;;;25.55;65.29;101422.75;4972195;28;4498;-67
2022/08/25 11:58:39;;;;;;;;;;;;;;;25.58;65.11;101409.06;4974995;28;4262;-68
2022/08/25 12:01:24;;;;;;;;;;;;;;;25.59;65.03;101401.88;4966583;28;5308;-66
2022/08/25 12:03:51;;;;;;;;;;;;;;;25.41;65.39;101407.78;4967663;28;5268;-73
2022/08/25 12:06:25;;;;;;;;;;;;;;;25.06;66.28;101407.28;4963797;28;4412;-73
2022/08/25 12:08:53;;;;;;;;;;;;;;;25.03;67.29;101405.72;4961235;28;4190;-71
2022/08/25 12:11:41;;;;;;;;;;;;;;;25.14;66.63;101406.09;4964193;28;4411;-72
2022/08/25 12:14:15;;;;;;;;;;;;;;;25.21;66.41;101393.31;4968363;28;4188;-71
2022/08/25 12:16:42;;;;;;;;;;;;;;;25.17;66.83;101398.94;4972249;28;4099;-71
2022/08/25 12:19:29;;;;;;;;;;;;;;;25.09;66.51;101394.34;4969223;28;4259;-74
2022/08/25 12:22:17;;;;;;;;;;;;;;;24.94;66.97;101386.56;4966729;28;5111;-74
2022/08/25 12:24:46;;;;;;;;;;;;;;;24.99;67.16;101394.00;4960241;28;5367;-76
2022/08/25 12:27:31;;;;;;;;;;;;;;;25.18;66.35;101383.06;4971002;28;4246;-74
2022/08/25 12:30:28;;;;;;;;;;;;;;;25.27;66.45;101384.84;4975831;28;6375;-75
2022/08/25 12:33:07;;;;;;;;;;;;;;;25.36;66.04;101372.13;4972489;28;4535;-81
2022/08/25 12:35:39;;;;;;;;;;;;;;;25.40;65.65;101369.34;4977960;28;4396;-80
2022/08/25 12:38:08;;;;;;;;;;;;;;;25.44;65.71;101363.66;4983232;28;4326;-80
2022/08/25 12:40:51;;;;;;;;;;;;;;;25.41;65.46;101365.03;4980225;28;4220;-78
2022/08/25 12:43:28;;;;;;;;;;;;;;;25.40;65.45;101366.44;4974916;28;4262;-77
2022/08/25 12:46:28;;;;;;;;;;;;;;;25.42;65.37;101363.59;4975742;28;4397;-80
2022/08/25 12:48:55;;;;;;;;;;;;;;;25.29;65.36;101359.56;4962426;28;4511;-71
2022/08/25 12:51:24;;;;;;;;;;;;;;;25.09;66.47;101359.59;4969481;28;4197;-71
2022/08/25 12:53:52;;;;;;;;;;;;;;;25.02;66.38;101354.25;4973374;28;5446;-70
2022/08/25 12:56:18;;;;;;;;;;;;;;;25.00;66.56;101348.38;4967208;28;5356;-73
2022/08/25 12:58:49;;;;;;;;;;;;;;;24.98;66.60;101357.00;4969294;28;5306;-71
2022/08/25 13:01:30;;;;;;;;;;;;;;;24.95;66.67;101343.88;4972211;28;5427;-72
2022/08/25 13:04:25;;;;;;;;;;;;;;;24.94;66.88;101348.16;4973536;28;4310;-71
2022/08/25 13:07:03;;;;;;;;;;;;;;;24.91;66.95;101341.56;4970701;28;4228;-71
2022/08/25 13:09:52;;;;;;;;;;;;;;;24.90;66.98;101345.13;4962795;28;4189;-70
2022/08/25 13:12:37;;;;;;;;;;;;;;;24.91;66.97;101335.03;4971799;28;4293;-70
2022/08/25 13:15:04;;;;;;;;;;;;;;;24.92;67.01;101327.81;4974324;28;4224;-68